Petersville, Iowa
Current Conditions -  °F | °C
As of 6:35 PM on Monday 22 Dec 2014 (Local Time) from KCWI Reporting Station
Overcast Overcast  
Wind Chill: 30°   Ceiling: 200
Heat Index: 37°   Visibility: 1.7mi
Dew Point: 36°   Wind: 12mph
Humidity: 93%   Direction: 110°ESE
Pressure: 29.6"   Gusts: NA
Location:  41.9894°N, 90.4903°W
Report Text: KCWI 230035Z AUTO 11010KT 1 3/4SM OVC002 03/02 A2960 RMK AO1
Loading
Personal Weather Stations






























Interactive Weather Map New forecast layout! Learn more

10-Day Weather Forecast

Advertisements
Track Severe Weather on mobile